• Join FlightAware (Why Join?)
  • Login
  • US Flag 
11:44AM EDT


 

Airport Tracker/Info


-or-


 

Live Flight TrackerFlight Track Log ✈ SWA1004 ✈ 12-Apr-2013 ✈ KSAN - KRNO

Flight Track Log - Related Links

Times and Time Zones

All times are in EDT time to prevent confusion due to time zone crossing. See the SWA1004 flight status page for this flight to view local times or setup timezone preferences in your user account.

Time Position Orientation Groundspeed Altitude Reporting Facility
EDT Latitude Longitude Course Direction KTS MPH feet Rate Location/Type
08:02PM 32.7839 -117.2978 296° West 227 261 3,500  Level Los Angeles Center
08:03PM 32.8275 -117.3772 303° West 273 314 6,800 3,480 Climbing Los Angeles Center
08:04PM 32.8714 -117.4575 303° West 287 330 10,700 3,840 Climbing Los Angeles Center
08:05PM 32.9344 -117.5247 318° Northwest 303 349 14,800 3,480 Climbing Los Angeles Center
08:06PM 33.0042 -117.5792 327° Northwest 300 345 18,000 3,000 Climbing Los Angeles Center
08:07PM 33.0636 -117.6533 314° West 312 359 21,000 2,700 Climbing Los Angeles Center
08:08PM 33.1344 -117.7622 308° West 341 392 23,600 2,220 Climbing Los Angeles Center
08:09PM 33.1933 -117.8658 304° West 370 426 25,600 1,920 Climbing Los Angeles Center
08:10PM 33.2553 -117.9725 305° West 388 447 27,600 1,920 Climbing Los Angeles Center
08:12PM 33.3342 -118.0569 318° Northwest 389 448 29,600 1,860 Climbing Los Angeles Center
08:13PM 33.4325 -118.0872 346° North 370 426 31,500 1,860 Climbing Los Angeles Center
08:14PM 33.5292 -118.1194 344° North 362 417 33,500 1,980 Climbing Los Angeles Center
08:15PM 33.6397 -118.1547 345° North 348 400 35,700 1,440 Climbing Los Angeles Center
08:16PM 33.7311 -118.1842 345° North 345 397 36,500 720 Climbing Los Angeles Center
08:17PM 33.8281 -118.2172 344° North 368 423 37,200 720 Climbing Los Angeles Center
08:18PM 33.9258 -118.2506 344° North 371 427 38,000 360 Climbing Los Angeles Center
08:19PM 34.0433 -118.2903 344° North 369 425 38,000  Level Los Angeles Center
08:20PM 34.1414 -118.3228 345° North 367 422 38,000  Level Los Angeles Center
08:21PM 34.2403 -118.3561 344° North 370 426 38,000  Level Los Angeles Center
08:22PM 34.3383 -118.3889 345° North 366 421 38,000  Level Los Angeles Center
08:23PM 34.4372 -118.4228 344° North 369 425 38,000  Level Los Angeles Center
08:24PM 34.5553 -118.4628 344° North 368 423 38,000  Level Los Angeles Center
08:25PM 34.6539 -118.4964 344° North 368 423 38,000  Level Los Angeles Center
08:26PM 34.7519 -118.5303 344° North 368 423 38,000  Level Los Angeles Center
08:27PM 34.8511 -118.5636 345° North 368 423 38,000  Level Los Angeles Center
08:28PM 34.9439 -118.5947 345° North 370 426 38,000  Level Los Angeles Center
08:29PM 35.0642 -118.6297 347° North 369 425 38,000  Level Los Angeles Center
08:30PM 35.1678 -118.6514 350° North 375 432 38,000  Level Los Angeles Center
08:31PM 35.2692 -118.6736 350° North 370 426 38,000  Level Los Angeles Center
08:32PM 35.3725 -118.6953 350° North 374 430 38,000  Level Los Angeles Center
08:33PM 35.4736 -118.7181 350° North 371 427 38,000  Level Los Angeles Center
08:34PM 35.5758 -118.7411 350° North 371 427 38,000  Level Los Angeles Center
08:35PM 35.6981 -118.7683 350° North 373 429 38,000  Level Los Angeles Center
08:36PM 35.7653 -118.7808 351° North 376 433 38,000  Level Oakland Center
08:37PM 35.8867 -118.8075 350° North 374 430 38,000  Level Oakland Center
08:38PM 35.9886 -118.8303 350° North 373 429 38,000  Level Oakland Center
08:39PM 36.0922 -118.8536 350° North 382 440 38,000  Level Oakland Center
08:40PM 36.1931 -118.8756 350° North 374 430 38,000  Level Oakland Center
08:41PM 36.3042 -118.8983 351° North 375 432 38,000  Level Oakland Center
08:42PM 36.4108 -118.9228 350° North 369 425 38,000  Level Oakland Center
08:43PM 36.5081 -118.9450 350° North 365 420 38,000 -300 Level Oakland Center
08:44PM 36.6153 -118.9689 350° North 370 426 37,500 -720 Descending Oakland Center
08:45PM 36.7147 -118.9928 349° North 374 430 36,600 -960 Descending Oakland Center
08:46PM 36.8222 -119.0181 349° North 374 430 35,600 -1,020 Descending Oakland Center
08:47PM 36.9242 -119.0419 349° North 382 440 34,600 -1,020 Descending Oakland Center
08:48PM 37.0347 -119.0664 350° North 382 440 33,600 -1,020 Descending Oakland Center
08:49PM 37.1467 -119.0953 348° North 406 467 32,600 -1,020 Descending Oakland Center
08:50PM 37.2514 -119.1186 350° North 404 465 31,600 -1,080 Descending Oakland Center
08:51PM 37.3644 -119.1403 351° North 403 464 30,500 -840 Descending Oakland Center
08:53PM 37.4689 -119.1675 348° North 402 463 30,000 -420 Descending Oakland Center
08:54PM 37.5833 -119.1986 348° North 415 478 29,700 -600 Descending Oakland Center
08:55PM 37.6800 -119.2153 352° North 399 459 28,800 -960 Descending Oakland Center
08:56PM 37.7803 -119.2378 350° North 394 453 27,800 -1,020 Descending Oakland Center
08:57PM 37.8822 -119.2617 350° North 375 432 26,800 -1,020 Descending Oakland Center
08:58PM 37.9833 -119.2850 350° North 370 426 25,800 -1,080 Descending Oakland Center
08:59PM 38.1033 -119.3133 349° North 367 422 24,600 -1,080 Descending Oakland Center
09:00PM 38.2019 -119.3358 350° North 363 418 23,600 -1,080 Descending Oakland Center
09:01PM 38.3006 -119.3589 350° North 361 415 22,500 -840 Descending Oakland Center
09:02PM 38.3967 -119.3828 349° North 355 409 22,000 -300 Descending Oakland Center
09:03PM 38.4919 -119.4042 350° North 350 403 22,000 -540 Level Oakland Center
09:04PM 38.5872 -119.4272 349° North 348 400 21,000 -1,020 Descending Oakland Center
09:05PM 38.6836 -119.4500 350° North 350 403 20,000 -1,020 Descending Oakland Center
09:06PM 38.7806 -119.4742 349° North 352 405 19,000 -1,080 Descending Oakland Center
09:07PM 38.8758 -119.4969 349° North 350 403 17,900 -1,320 Descending Oakland Center
09:08PM 38.9700 -119.5192 350° North 346 398 16,400 -1,200 Descending Oakland Center
09:09PM 39.0806 -119.5461 349° North 338 389 15,500 -960 Descending Oakland Center
09:10PM 39.1794 -119.5692 350° North 351 404 14,500 -1,020 Descending Oakland Center
09:11PM 39.2811 -119.5953 349° North 366 421 13,500 -1,080 Descending Oakland Center
09:12PM 39.3806 -119.6189 350° North 364 419 12,400 -1,080 Descending Oakland Center
09:13PM 39.4500 -119.6333 351° North 329 379 11,600 -1,020 Descending Northern Cal TRACON
09:14PM 39.5333 -119.6500 351° North 283 326 10,700 -1,860 Descending Northern Cal TRACON
09:15PM 39.6000 -119.6833 339° North 254 292 7,900 -1,800 Descending Northern Cal TRACON
09:16PM 39.6000 -119.7500 270° West 202 232 7,100 -1,140 Descending Northern Cal TRACON
09:17PM 39.5667 -119.7667 201° Southwest 162 186 5,700 -1,440 Descending Northern Cal TRACON
09:19PM 39.4991 -119.7681 237° Southwest  Level Estimated
09:26PM 39.4991 -119.7681 237° Southwest  Level Estimated